sensor_id;sensor_type;location;lat;lon;timestamp;temperature;humidity
22112;DHT22;11222;50.872;4.312;2022-08-21T00:01:06;19.10;99.90
22112;DHT22;11222;50.872;4.312;2022-08-21T00:03:35;19.00;99.90
22112;DHT22;11222;50.872;4.312;2022-08-21T00:06:02;19.00;99.90
22112;DHT22;11222;50.872;4.312;2022-08-21T00:08:28;19.00;99.90
22112;DHT22;11222;50.872;4.312;2022-08-21T00:10:54;18.90;99.90
22112;DHT22;11222;50.872;4.312;2022-08-21T00:13:20;18.90;99.90
22112;DHT22;11222;50.872;4.312;2022-08-21T00:15:46;18.80;99.90
22112;DHT22;11222;50.872;4.312;2022-08-21T00:18:13;18.70;99.90
22112;DHT22;11222;50.872;4.312;2022-08-21T00:20:40;18.70;99.90
22112;DHT22;11222;50.872;4.312;2022-08-21T00:23:06;18.60;99.90
22112;DHT22;11222;50.872;4.312;2022-08-21T00:25:32;18.50;99.90
22112;DHT22;11222;50.872;4.312;2022-08-21T00:27:58;18.50;99.90
22112;DHT22;11222;50.872;4.312;2022-08-21T00:30:26;18.40;99.90
22112;DHT22;11222;50.872;4.312;2022-08-21T00:32:53;18.40;99.90
22112;DHT22;11222;50.872;4.312;2022-08-21T00:35:24;18.30;99.90
22112;DHT22;11222;50.872;4.312;2022-08-21T00:37:50;18.30;99.90
22112;DHT22;11222;50.872;4.312;2022-08-21T00:40:19;18.20;99.90
22112;DHT22;11222;50.872;4.312;2022-08-21T00:42:45;18.20;99.90
22112;DHT22;11222;50.872;4.312;2022-08-21T00:45:11;18.10;99.90
22112;DHT22;11222;50.872;4.312;2022-08-21T00:47:37;18.10;99.90
22112;DHT22;11222;50.872;4.312;2022-08-21T00:50:07;18.00;99.90
22112;DHT22;11222;50.872;4.312;2022-08-21T00:52:34;18.00;99.90
22112;DHT22;11222;50.872;4.312;2022-08-21T00:55:02;18.00;99.90
22112;DHT22;11222;50.872;4.312;2022-08-21T00:57:32;18.00;99.90
22112;DHT22;11222;50.872;4.312;2022-08-21T01:00:03;17.90;99.90
22112;DHT22;11222;50.872;4.312;2022-08-21T01:02:29;17.90;99.90
22112;DHT22;11222;50.872;4.312;2022-08-21T01:04:55;17.90;99.90
22112;DHT22;11222;50.872;4.312;2022-08-21T01:07:21;17.90;99.90
22112;DHT22;11222;50.872;4.312;2022-08-21T01:09:47;18.00;99.90
22112;DHT22;11222;50.872;4.312;2022-08-21T01:12:14;18.00;99.90
22112;DHT22;11222;50.872;4.312;2022-08-21T01:14:41;18.00;99.90
22112;DHT22;11222;50.872;4.312;2022-08-21T01:17:10;18.00;99.90
22112;DHT22;11222;50.872;4.312;2022-08-21T01:19:36;18.00;99.90
22112;DHT22;11222;50.872;4.312;2022-08-21T01:22:02;18.00;99.90
22112;DHT22;11222;50.872;4.312;2022-08-21T01:24:28;18.00;99.90
22112;DHT22;11222;50.872;4.312;2022-08-21T01:26:54;18.00;99.90
22112;DHT22;11222;50.872;4.312;2022-08-21T01:29:29;18.00;99.90
22112;DHT22;11222;50.872;4.312;2022-08-21T01:31:58;17.90;99.90
22112;DHT22;11222;50.872;4.312;2022-08-21T01:34:24;17.90;99.90
22112;DHT22;11222;50.872;4.312;2022-08-21T01:36:50;17.90;99.90
22112;DHT22;11222;50.872;4.312;2022-08-21T01:39:16;17.90;99.90
22112;DHT22;11222;50.872;4.312;2022-08-21T01:41:42;17.90;99.90
22112;DHT22;11222;50.872;4.312;2022-08-21T01:44:08;17.80;99.90
22112;DHT22;11222;50.872;4.312;2022-08-21T01:46:34;17.80;99.90
22112;DHT22;11222;50.872;4.312;2022-08-21T01:49:00;17.70;99.90
22112;DHT22;11222;50.872;4.312;2022-08-21T01:51:26;17.70;99.90
22112;DHT22;11222;50.872;4.312;2022-08-21T01:53:51;17.60;99.90
22112;DHT22;11222;50.872;4.312;2022-08-21T01:56:17;17.60;99.90
22112;DHT22;11222;50.872;4.312;2022-08-21T01:58:46;17.70;99.90
22112;DHT22;11222;50.872;4.312;2022-08-21T02:01:12;17.60;99.90
22112;DHT22;11222;50.872;4.312;2022-08-21T02:03:38;17.70;99.90
22112;DHT22;11222;50.872;4.312;2022-08-21T02:06:05;17.60;99.90
22112;DHT22;11222;50.872;4.312;2022-08-21T02:08:32;17.60;99.90
22112;DHT22;11222;50.872;4.312;2022-08-21T02:10:59;17.60;99.90
22112;DHT22;11222;50.872;4.312;2022-08-21T02:13:25;17.50;99.90
22112;DHT22;11222;50.872;4.312;2022-08-21T02:15:51;17.50;99.90
22112;DHT22;11222;50.872;4.312;2022-08-21T02:18:17;17.50;99.90
22112;DHT22;11222;50.872;4.312;2022-08-21T02:20:47;17.50;99.90
22112;DHT22;11222;50.872;4.312;2022-08-21T02:23:13;17.50;99.90
22112;DHT22;11222;50.872;4.312;2022-08-21T02:25:39;17.50;99.90
22112;DHT22;11222;50.872;4.312;2022-08-21T02:28:07;17.40;99.90
22112;DHT22;11222;50.872;4.312;2022-08-21T02:30:39;17.30;99.90
22112;DHT22;11222;50.872;4.312;2022-08-21T02:33:05;17.30;99.90
22112;DHT22;11222;50.872;4.312;2022-08-21T02:35:31;17.20;99.90
22112;DHT22;11222;50.872;4.312;2022-08-21T02:38:00;17.20;99.90
22112;DHT22;11222;50.872;4.312;2022-08-21T02:40:31;17.10;99.90
22112;DHT22;11222;50.872;4.312;2022-08-21T02:43:01;17.10;99.90
22112;DHT22;11222;50.872;4.312;2022-08-21T02:45:28;17.00;99.90
22112;DHT22;11222;50.872;4.312;2022-08-21T02:48:00;17.00;99.90
22112;DHT22;11222;50.872;4.312;2022-08-21T02:50:32;16.90;99.90
22112;DHT22;11222;50.872;4.312;2022-08-21T02:52:58;16.80;99.90
22112;DHT22;11222;50.872;4.312;2022-08-21T02:55:27;16.70;99.90
22112;DHT22;11222;50.872;4.312;2022-08-21T02:57:54;16.70;99.90
22112;DHT22;11222;50.872;4.312;2022-08-21T03:00:21;16.60;99.90
22112;DHT22;11222;50.872;4.312;2022-08-21T03:02:48;16.60;99.90
22112;DHT22;11222;50.872;4.312;2022-08-21T03:05:15;16.50;99.90
22112;DHT22;11222;50.872;4.312;2022-08-21T03:07:43;16.50;99.90
22112;DHT22;11222;50.872;4.312;2022-08-21T03:10:09;16.40;99.90
22112;DHT22;11222;50.872;4.312;2022-08-21T03:12:35;16.40;99.90
22112;DHT22;11222;50.872;4.312;2022-08-21T03:15:06;16.40;99.90
22112;DHT22;11222;50.872;4.312;2022-08-21T03:17:32;16.30;99.90
22112;DHT22;11222;50.872;4.312;2022-08-21T03:19:58;16.30;99.90
22112;DHT22;11222;50.872;4.312;2022-08-21T03:22:24;16.30;99.90
22112;DHT22;11222;50.872;4.312;2022-08-21T03:24:50;16.30;99.90
22112;DHT22;11222;50.872;4.312;2022-08-21T03:27:16;16.30;99.90
22112;DHT22;11222;50.872;4.312;2022-08-21T03:29:42;16.30;99.90
22112;DHT22;11222;50.872;4.312;2022-08-21T03:32:08;16.30;99.90
22112;DHT22;11222;50.872;4.312;2022-08-21T03:34:37;16.40;99.90
22112;DHT22;11222;50.872;4.312;2022-08-21T03:37:07;16.40;99.90
22112;DHT22;11222;50.872;4.312;2022-08-21T03:39:34;16.30;99.90
22112;DHT22;11222;50.872;4.312;2022-08-21T03:41:59;16.30;99.90
22112;DHT22;11222;50.872;4.312;2022-08-21T03:44:26;16.20;99.90
22112;DHT22;11222;50.872;4.312;2022-08-21T03:46:55;16.10;99.90
22112;DHT22;11222;50.872;4.312;2022-08-21T03:49:21;16.00;99.90
22112;DHT22;11222;50.872;4.312;2022-08-21T03:51:46;16.00;99.90
22112;DHT22;11222;50.872;4.312;2022-08-21T03:54:12;16.00;99.90
22112;DHT22;11222;50.872;4.312;2022-08-21T03:56:38;16.00;99.90
22112;DHT22;11222;50.872;4.312;2022-08-21T03:59:05;16.00;99.90
22112;DHT22;11222;50.872;4.312;2022-08-21T04:01:31;16.00;99.90
22112;DHT22;11222;50.872;4.312;2022-08-21T04:03:56;16.10;99.90
22112;DHT22;11222;50.872;4.312;2022-08-21T04:06:22;16.10;99.90
22112;DHT22;11222;50.872;4.312;2022-08-21T04:08:48;16.10;99.90
22112;DHT22;11222;50.872;4.312;2022-08-21T04:11:14;16.10;99.90
22112;DHT22;11222;50.872;4.312;2022-08-21T04:13:40;16.10;99.90
22112;DHT22;11222;50.872;4.312;2022-08-21T04:16:06;16.10;99.90
22112;DHT22;11222;50.872;4.312;2022-08-21T04:18:32;16.10;99.90
22112;DHT22;11222;50.872;4.312;2022-08-21T04:20:59;16.10;99.90
22112;DHT22;11222;50.872;4.312;2022-08-21T04:23:26;16.10;99.90
22112;DHT22;11222;50.872;4.312;2022-08-21T04:25:53;16.00;99.90
22112;DHT22;11222;50.872;4.312;2022-08-21T04:28:20;16.00;99.90
22112;DHT22;11222;50.872;4.312;2022-08-21T04:30:46;16.00;99.90
22112;DHT22;11222;50.872;4.312;2022-08-21T04:33:12;16.00;99.90
22112;DHT22;11222;50.872;4.312;2022-08-21T04:35:38;16.00;99.90
22112;DHT22;11222;50.872;4.312;2022-08-21T04:38:04;16.10;99.90
22112;DHT22;11222;50.872;4.312;2022-08-21T04:40:29;16.20;99.90
22112;DHT22;11222;50.872;4.312;2022-08-21T04:42:59;16.30;99.90
22112;DHT22;11222;50.872;4.312;2022-08-21T04:45:30;16.40;99.90
22112;DHT22;11222;50.872;4.312;2022-08-21T04:47:58;16.40;99.90
22112;DHT22;11222;50.872;4.312;2022-08-21T04:50:39;16.50;99.90
22112;DHT22;11222;50.872;4.312;2022-08-21T04:53:10;16.60;99.90
22112;DHT22;11222;50.872;4.312;2022-08-21T04:55:37;16.60;99.90
22112;DHT22;11222;50.872;4.312;2022-08-21T04:58:05;16.50;99.90
22112;DHT22;11222;50.872;4.312;2022-08-21T05:00:32;16.50;99.90
22112;DHT22;11222;50.872;4.312;2022-08-21T05:02:59;16.50;99.90
22112;DHT22;11222;50.872;4.312;2022-08-21T05:05:28;16.50;99.90
22112;DHT22;11222;50.872;4.312;2022-08-21T05:07:55;16.50;99.90
22112;DHT22;11222;50.872;4.312;2022-08-21T05:10:21;16.50;99.90
22112;DHT22;11222;50.872;4.312;2022-08-21T05:12:48;16.50;99.90
22112;DHT22;11222;50.872;4.312;2022-08-21T05:15:14;16.50;99.90
22112;DHT22;11222;50.872;4.312;2022-08-21T05:17:43;16.60;99.90
22112;DHT22;11222;50.872;4.312;2022-08-21T05:20:11;16.60;99.90
22112;DHT22;11222;50.872;4.312;2022-08-21T05:22:37;16.60;99.90
22112;DHT22;11222;50.872;4.312;2022-08-21T05:25:04;16.50;99.90
22112;DHT22;11222;50.872;4.312;2022-08-21T05:27:30;16.50;99.90
22112;DHT22;11222;50.872;4.312;2022-08-21T05:29:56;16.50;99.90
22112;DHT22;11222;50.872;4.312;2022-08-21T05:32:22;16.50;99.90
22112;DHT22;11222;50.872;4.312;2022-08-21T05:34:48;16.60;99.90
22112;DHT22;11222;50.872;4.312;2022-08-21T05:37:13;16.60;99.90
22112;DHT22;11222;50.872;4.312;2022-08-21T05:39:39;16.70;99.90
22112;DHT22;11222;50.872;4.312;2022-08-21T05:42:05;16.70;99.90
22112;DHT22;11222;50.872;4.312;2022-08-21T05:44:31;16.80;99.90
22112;DHT22;11222;50.872;4.312;2022-08-21T05:47:05;16.80;99.90
22112;DHT22;11222;50.872;4.312;2022-08-21T05:49:32;16.90;99.90
22112;DHT22;11222;50.872;4.312;2022-08-21T05:51:57;16.80;99.90
22112;DHT22;11222;50.872;4.312;2022-08-21T05:54:23;16.80;99.90
22112;DHT22;11222;50.872;4.312;2022-08-21T05:56:49;16.70;99.90
22112;DHT22;11222;50.872;4.312;2022-08-21T05:59:14;16.70;99.90
22112;DHT22;11222;50.872;4.312;2022-08-21T06:01:40;16.70;99.90
22112;DHT22;11222;50.872;4.312;2022-08-21T06:04:06;16.70;99.90
22112;DHT22;11222;50.872;4.312;2022-08-21T06:06:33;16.80;99.90
22112;DHT22;11222;50.872;4.312;2022-08-21T06:08:59;16.80;99.90
22112;DHT22;11222;50.872;4.312;2022-08-21T06:11:24;16.80;99.90
22112;DHT22;11222;50.872;4.312;2022-08-21T06:13:50;16.80;99.90
22112;DHT22;11222;50.872;4.312;2022-08-21T06:16:16;16.80;99.90
22112;DHT22;11222;50.872;4.312;2022-08-21T06:18:44;16.90;99.90
22112;DHT22;11222;50.872;4.312;2022-08-21T06:21:10;16.90;99.90
22112;DHT22;11222;50.872;4.312;2022-08-21T06:23:37;17.00;99.90
22112;DHT22;11222;50.872;4.312;2022-08-21T06:26:04;17.00;99.90
22112;DHT22;11222;50.872;4.312;2022-08-21T06:28:31;17.00;99.90
22112;DHT22;11222;50.872;4.312;2022-08-21T06:30:56;17.10;99.90
22112;DHT22;11222;50.872;4.312;2022-08-21T06:33:22;17.10;99.90
22112;DHT22;11222;50.872;4.312;2022-08-21T06:35:49;17.20;99.90
22112;DHT22;11222;50.872;4.312;2022-08-21T06:38:15;17.30;99.90
22112;DHT22;11222;50.872;4.312;2022-08-21T06:40:41;17.30;99.90
22112;DHT22;11222;50.872;4.312;2022-08-21T06:43:11;17.30;99.90
22112;DHT22;11222;50.872;4.312;2022-08-21T06:45:37;17.40;99.90
22112;DHT22;11222;50.872;4.312;2022-08-21T06:48:04;17.50;99.90
22112;DHT22;11222;50.872;4.312;2022-08-21T06:50:30;17.60;99.90
22112;DHT22;11222;50.872;4.312;2022-08-21T06:53:05;17.70;99.90
22112;DHT22;11222;50.872;4.312;2022-08-21T06:55:31;17.70;99.90
22112;DHT22;11222;50.872;4.312;2022-08-21T06:57:58;17.70;99.90
22112;DHT22;11222;50.872;4.312;2022-08-21T07:00:24;17.70;99.90
22112;DHT22;11222;50.872;4.312;2022-08-21T07:02:49;17.80;99.90
22112;DHT22;11222;50.872;4.312;2022-08-21T07:05:16;17.80;99.90
22112;DHT22;11222;50.872;4.312;2022-08-21T07:07:41;17.90;99.90
22112;DHT22;11222;50.872;4.312;2022-08-21T07:10:07;18.10;99.90
22112;DHT22;11222;50.872;4.312;2022-08-21T07:12:33;18.20;99.90
22112;DHT22;11222;50.872;4.312;2022-08-21T07:14:59;18.10;99.90
22112;DHT22;11222;50.872;4.312;2022-08-21T07:17:24;18.30;99.90
22112;DHT22;11222;50.872;4.312;2022-08-21T07:19:50;18.40;99.90
22112;DHT22;11222;50.872;4.312;2022-08-21T07:22:19;18.50;99.90
22112;DHT22;11222;50.872;4.312;2022-08-21T07:24:46;18.60;99.90
22112;DHT22;11222;50.872;4.312;2022-08-21T07:27:12;18.70;99.90
22112;DHT22;11222;50.872;4.312;2022-08-21T07:29:37;18.80;99.90
22112;DHT22;11222;50.872;4.312;2022-08-21T07:32:04;18.80;99.90
22112;DHT22;11222;50.872;4.312;2022-08-21T07:34:30;18.70;99.90
22112;DHT22;11222;50.872;4.312;2022-08-21T07:36:57;18.80;99.90
22112;DHT22;11222;50.872;4.312;2022-08-21T07:39:23;18.90;99.90
22112;DHT22;11222;50.872;4.312;2022-08-21T07:41:48;19.00;99.90
22112;DHT22;11222;50.872;4.312;2022-08-21T07:44:14;19.00;99.90
22112;DHT22;11222;50.872;4.312;2022-08-21T07:46:40;19.10;99.90
22112;DHT22;11222;50.872;4.312;2022-08-21T07:49:05;19.10;99.90
22112;DHT22;11222;50.872;4.312;2022-08-21T07:51:32;19.10;99.90
22112;DHT22;11222;50.872;4.312;2022-08-21T07:53:59;19.30;99.90
22112;DHT22;11222;50.872;4.312;2022-08-21T07:56:26;19.50;99.90
22112;DHT22;11222;50.872;4.312;2022-08-21T07:58:51;19.50;99.90
22112;DHT22;11222;50.872;4.312;2022-08-21T08:01:18;19.60;99.90
22112;DHT22;11222;50.872;4.312;2022-08-21T08:03:44;19.80;99.90
22112;DHT22;11222;50.872;4.312;2022-08-21T08:06:11;20.00;99.90
22112;DHT22;11222;50.872;4.312;2022-08-21T08:08:39;20.10;99.90
22112;DHT22;11222;50.872;4.312;2022-08-21T08:11:06;20.40;99.90
22112;DHT22;11222;50.872;4.312;2022-08-21T08:13:38;20.40;99.90
22112;DHT22;11222;50.872;4.312;2022-08-21T08:16:04;20.50;99.90
22112;DHT22;11222;50.872;4.312;2022-08-21T08:18:30;20.60;99.90
22112;DHT22;11222;50.872;4.312;2022-08-21T08:20:56;20.60;99.90
22112;DHT22;11222;50.872;4.312;2022-08-21T08:23:21;20.80;99.90
22112;DHT22;11222;50.872;4.312;2022-08-21T08:25:48;21.10;99.90
22112;DHT22;11222;50.872;4.312;2022-08-21T08:28:14;21.40;99.90
22112;DHT22;11222;50.872;4.312;2022-08-21T08:30:40;22.40;99.90
22112;DHT22;11222;50.872;4.312;2022-08-21T08:33:06;23.10;99.90
22112;DHT22;11222;50.872;4.312;2022-08-21T08:35:32;23.70;99.90
22112;DHT22;11222;50.872;4.312;2022-08-21T08:37:57;24.70;99.90
22112;DHT22;11222;50.872;4.312;2022-08-21T08:40:41;26.20;99.90
22112;DHT22;11222;50.872;4.312;2022-08-21T08:43:10;27.00;99.90
22112;DHT22;11222;50.872;4.312;2022-08-21T08:45:39;27.60;99.90
22112;DHT22;11222;50.872;4.312;2022-08-21T08:48:10;27.90;99.90
22112;DHT22;11222;50.872;4.312;2022-08-21T08:50:45;28.70;99.90
22112;DHT22;11222;50.872;4.312;2022-08-21T08:53:17;28.50;99.90
22112;DHT22;11222;50.872;4.312;2022-08-21T08:55:45;28.00;99.90
22112;DHT22;11222;50.872;4.312;2022-08-21T08:58:22;28.10;99.90
22112;DHT22;11222;50.872;4.312;2022-08-21T09:00:52;27.80;99.90
22112;DHT22;11222;50.872;4.312;2022-08-21T09:03:18;27.50;99.90
22112;DHT22;11222;50.872;4.312;2022-08-21T09:05:50;27.30;99.90
22112;DHT22;11222;50.872;4.312;2022-08-21T09:08:28;27.70;99.90
22112;DHT22;11222;50.872;4.312;2022-08-21T09:11:04;28.00;99.90
22112;DHT22;11222;50.872;4.312;2022-08-21T09:24:55;30.80;99.90
22112;DHT22;11222;50.872;4.312;2022-08-21T09:27:25;29.80;99.90
22112;DHT22;11222;50.872;4.312;2022-08-21T09:29:53;29.20;99.90
22112;DHT22;11222;50.872;4.312;2022-08-21T09:35:08;30.50;99.90
22112;DHT22;11222;50.872;4.312;2022-08-21T09:37:57;30.40;99.90
22112;DHT22;11222;50.872;4.312;2022-08-21T09:40:44;31.00;99.90
22112;DHT22;11222;50.872;4.312;2022-08-21T09:43:22;29.80;99.90
22112;DHT22;11222;50.872;4.312;2022-08-21T09:48:39;26.60;99.90
22112;DHT22;11222;50.872;4.312;2022-08-21T09:51:08;26.20;99.90
22112;DHT22;11222;50.872;4.312;2022-08-21T09:53:37;25.10;99.90
22112;DHT22;11222;50.872;4.312;2022-08-21T09:56:27;24.30;99.90
22112;DHT22;11222;50.872;4.312;2022-08-21T09:59:28;23.90;99.90
22112;DHT22;11222;50.872;4.312;2022-08-21T10:01:57;24.40;99.90
22112;DHT22;11222;50.872;4.312;2022-08-21T10:04:30;25.40;99.90
22112;DHT22;11222;50.872;4.312;2022-08-21T10:07:12;26.00;99.90
22112;DHT22;11222;50.872;4.312;2022-08-21T10:09:40;26.50;99.90
22112;DHT22;11222;50.872;4.312;2022-08-21T10:13:02;26.40;99.90
22112;DHT22;11222;50.872;4.312;2022-08-21T10:18:06;28.40;99.90
22112;DHT22;11222;50.872;4.312;2022-08-21T10:20:43;28.70;99.90
22112;DHT22;11222;50.872;4.312;2022-08-21T10:32:10;27.40;99.90
22112;DHT22;11222;50.872;4.312;2022-08-21T10:35:29;26.40;99.90
22112;DHT22;11222;50.872;4.312;2022-08-21T10:38:17;26.00;99.90
22112;DHT22;11222;50.872;4.312;2022-08-21T10:47:24;29.70;99.90
22112;DHT22;11222;50.872;4.312;2022-08-21T10:55:26;28.60;99.90
22112;DHT22;11222;50.872;4.312;2022-08-21T10:57:58;28.90;99.90
22112;DHT22;11222;50.872;4.312;2022-08-21T11:00:43;29.20;99.90
22112;DHT22;11222;50.872;4.312;2022-08-21T11:03:31;29.30;99.90
22112;DHT22;11222;50.872;4.312;2022-08-21T11:06:20;28.50;99.90
22112;DHT22;11222;50.872;4.312;2022-08-21T11:08:51;28.70;99.90
22112;DHT22;11222;50.872;4.312;2022-08-21T11:11:27;29.30;99.90
22112;DHT22;11222;50.872;4.312;2022-08-21T11:14:16;28.50;99.90
22112;DHT22;11222;50.872;4.312;2022-08-21T11:16:50;28.10;99.90
22112;DHT22;11222;50.872;4.312;2022-08-21T11:19:42;27.00;99.90
22112;DHT22;11222;50.872;4.312;2022-08-21T11:22:28;26.40;99.90
22112;DHT22;11222;50.872;4.312;2022-08-21T11:25:20;26.20;99.90
22112;DHT22;11222;50.872;4.312;2022-08-21T11:27:52;26.40;99.90
22112;DHT22;11222;50.872;4.312;2022-08-21T11:30:20;27.70;99.90
22112;DHT22;11222;50.872;4.312;2022-08-21T11:35:39;28.20;99.90
22112;DHT22;11222;50.872;4.312;2022-08-21T11:43:41;28.60;99.90
22112;DHT22;11222;50.872;4.312;2022-08-21T11:46:47;29.80;99.90
22112;DHT22;11222;50.872;4.312;2022-08-21T11:49:36;30.40;99.90
22112;DHT22;11222;50.872;4.312;2022-08-21T11:55:25;30.70;99.90
22112;DHT22;11222;50.872;4.312;2022-08-21T11:57:35;30.80;99.90
22112;DHT22;11222;50.872;4.312;2022-08-21T12:00:06;31.50;99.90
22112;DHT22;11222;50.872;4.312;2022-08-21T12:02:39;30.80;99.90
22112;DHT22;11222;50.872;4.312;2022-08-21T12:05:11;30.00;99.90
22112;DHT22;11222;50.872;4.312;2022-08-21T12:07:42;29.80;99.90
22112;DHT22;11222;50.872;4.312;2022-08-21T12:10:15;29.50;99.90
22112;DHT22;11222;50.872;4.312;2022-08-21T12:12:43;28.80;99.90
22112;DHT22;11222;50.872;4.312;2022-08-21T12:23:27;26.40;99.90
22112;DHT22;11222;50.872;4.312;2022-08-21T12:28:47;25.90;99.90
22112;DHT22;11222;50.872;4.312;2022-08-21T12:31:24;26.00;99.90
22112;DHT22;11222;50.872;4.312;2022-08-21T12:33:54;26.10;99.90
22112;DHT22;11222;50.872;4.312;2022-08-21T12:36:40;26.10;99.90
22112;DHT22;11222;50.872;4.312;2022-08-21T12:39:14;25.90;99.90
22112;DHT22;11222;50.872;4.312;2022-08-21T12:41:49;25.90;99.90
22112;DHT22;11222;50.872;4.312;2022-08-21T12:44:38;26.00;99.90
22112;DHT22;11222;50.872;4.312;2022-08-21T12:47:36;26.10;99.90
22112;DHT22;11222;50.872;4.312;2022-08-21T12:50:17;25.90;99.90
22112;DHT22;11222;50.872;4.312;2022-08-21T12:53:06;25.70;99.90
22112;DHT22;11222;50.872;4.312;2022-08-21T12:55:33;25.60;99.90
22112;DHT22;11222;50.872;4.312;2022-08-21T12:58:00;25.40;99.90
22112;DHT22;11222;50.872;4.312;2022-08-21T13:00:28;25.60;99.90
22112;DHT22;11222;50.872;4.312;2022-08-21T13:02:55;25.30;99.90
22112;DHT22;11222;50.872;4.312;2022-08-21T13:05:34;25.50;99.90
22112;DHT22;11222;50.872;4.312;2022-08-21T13:08:07;25.60;99.90
22112;DHT22;11222;50.872;4.312;2022-08-21T13:10:36;25.80;99.90
22112;DHT22;11222;50.872;4.312;2022-08-21T13:13:06;26.10;99.90
22112;DHT22;11222;50.872;4.312;2022-08-21T13:15:36;26.20;99.90
22112;DHT22;11222;50.872;4.312;2022-08-21T13:18:05;26.20;99.90
22112;DHT22;11222;50.872;4.312;2022-08-21T13:20:39;26.40;99.90
22112;DHT22;11222;50.872;4.312;2022-08-21T13:23:38;26.30;99.90
22112;DHT22;11222;50.872;4.312;2022-08-21T13:26:16;26.20;99.90
22112;DHT22;11222;50.872;4.312;2022-08-21T13:28:42;26.00;99.90
22112;DHT22;11222;50.872;4.312;2022-08-21T13:31:10;25.70;99.90
22112;DHT22;11222;50.872;4.312;2022-08-21T13:33:37;25.50;99.90
22112;DHT22;11222;50.872;4.312;2022-08-21T13:36:14;25.70;99.90
22112;DHT22;11222;50.872;4.312;2022-08-21T13:38:44;25.80;99.90
22112;DHT22;11222;50.872;4.312;2022-08-21T13:41:27;25.80;99.90
22112;DHT22;11222;50.872;4.312;2022-08-21T13:44:34;25.90;99.90
22112;DHT22;11222;50.872;4.312;2022-08-21T13:46:54;26.30;99.90
22112;DHT22;11222;50.872;4.312;2022-08-21T13:49:26;26.40;99.90
22112;DHT22;11222;50.872;4.312;2022-08-21T13:51:54;26.30;99.90
22112;DHT22;11222;50.872;4.312;2022-08-21T13:54:26;25.90;99.90
22112;DHT22;11222;50.872;4.312;2022-08-21T13:56:54;25.80;99.90
22112;DHT22;11222;50.872;4.312;2022-08-21T13:59:38;26.00;99.90
22112;DHT22;11222;50.872;4.312;2022-08-21T14:02:15;26.20;99.90
22112;DHT22;11222;50.872;4.312;2022-08-21T14:05:05;25.70;99.90
22112;DHT22;11222;50.872;4.312;2022-08-21T14:07:34;25.50;99.90
22112;DHT22;11222;50.872;4.312;2022-08-21T14:10:26;25.50;99.90
22112;DHT22;11222;50.872;4.312;2022-08-21T14:15:25;25.50;99.90
22112;DHT22;11222;50.872;4.312;2022-08-21T14:17:51;25.20;99.90
22112;DHT22;11222;50.872;4.312;2022-08-21T14:20:35;25.00;99.90
22112;DHT22;11222;50.872;4.312;2022-08-21T14:23:02;25.00;99.90
22112;DHT22;11222;50.872;4.312;2022-08-21T14:25:29;24.80;99.90
22112;DHT22;11222;50.872;4.312;2022-08-21T14:30:39;24.90;99.90
22112;DHT22;11222;50.872;4.312;2022-08-21T14:33:09;25.30;99.90
22112;DHT22;11222;50.872;4.312;2022-08-21T14:35:35;25.50;99.90
22112;DHT22;11222;50.872;4.312;2022-08-21T14:38:02;25.70;99.90
22112;DHT22;11222;50.872;4.312;2022-08-21T14:40:28;25.60;99.90
22112;DHT22;11222;50.872;4.312;2022-08-21T14:42:54;25.40;99.90
22112;DHT22;11222;50.872;4.312;2022-08-21T14:45:26;25.40;99.90
22112;DHT22;11222;50.872;4.312;2022-08-21T14:47:52;25.30;99.90
22112;DHT22;11222;50.872;4.312;2022-08-21T14:50:19;25.60;99.90
22112;DHT22;11222;50.872;4.312;2022-08-21T14:52:44;25.90;99.90
22112;DHT22;11222;50.872;4.312;2022-08-21T14:55:12;26.00;99.90
22112;DHT22;11222;50.872;4.312;2022-08-21T14:57:46;25.80;99.90
22112;DHT22;11222;50.872;4.312;2022-08-21T15:00:14;25.90;99.90
22112;DHT22;11222;50.872;4.312;2022-08-21T15:02:42;25.90;99.90
22112;DHT22;11222;50.872;4.312;2022-08-21T15:05:08;26.10;99.90
22112;DHT22;11222;50.872;4.312;2022-08-21T15:07:34;26.20;99.90
22112;DHT22;11222;50.872;4.312;2022-08-21T15:10:00;26.20;99.90
22112;DHT22;11222;50.872;4.312;2022-08-21T15:12:26;26.30;99.90
22112;DHT22;11222;50.872;4.312;2022-08-21T15:14:51;26.40;99.90
22112;DHT22;11222;50.872;4.312;2022-08-21T15:17:18;26.30;99.90
22112;DHT22;11222;50.872;4.312;2022-08-21T15:19:44;26.30;99.90
22112;DHT22;11222;50.872;4.312;2022-08-21T15:22:10;26.30;99.90
22112;DHT22;11222;50.872;4.312;2022-08-21T15:24:36;25.90;99.90
22112;DHT22;11222;50.872;4.312;2022-08-21T15:27:02;25.70;99.90
22112;DHT22;11222;50.872;4.312;2022-08-21T15:29:30;25.50;99.90
22112;DHT22;11222;50.872;4.312;2022-08-21T15:31:59;25.60;99.90
22112;DHT22;11222;50.872;4.312;2022-08-21T15:34:27;25.70;99.90
22112;DHT22;11222;50.872;4.312;2022-08-21T15:36:57;25.60;99.90
22112;DHT22;11222;50.872;4.312;2022-08-21T15:39:24;25.50;99.90
22112;DHT22;11222;50.872;4.312;2022-08-21T15:41:50;25.40;99.90
22112;DHT22;11222;50.872;4.312;2022-08-21T15:44:16;25.30;99.90
22112;DHT22;11222;50.872;4.312;2022-08-21T15:46:42;25.30;99.90
22112;DHT22;11222;50.872;4.312;2022-08-21T15:49:10;25.30;99.90
22112;DHT22;11222;50.872;4.312;2022-08-21T15:51:36;25.30;99.90
22112;DHT22;11222;50.872;4.312;2022-08-21T15:54:02;25.10;99.90
22112;DHT22;11222;50.872;4.312;2022-08-21T15:56:37;25.10;99.90
22112;DHT22;11222;50.872;4.312;2022-08-21T15:59:07;25.10;99.90
22112;DHT22;11222;50.872;4.312;2022-08-21T16:01:35;25.20;99.90
22112;DHT22;11222;50.872;4.312;2022-08-21T16:04:02;25.40;99.90
22112;DHT22;11222;50.872;4.312;2022-08-21T16:06:28;25.60;99.90
22112;DHT22;11222;50.872;4.312;2022-08-21T16:08:54;25.60;99.90
22112;DHT22;11222;50.872;4.312;2022-08-21T16:11:20;25.60;99.90
22112;DHT22;11222;50.872;4.312;2022-08-21T16:13:46;25.60;99.90
22112;DHT22;11222;50.872;4.312;2022-08-21T16:16:23;25.50;99.90
22112;DHT22;11222;50.872;4.312;2022-08-21T16:18:50;25.20;99.90
22112;DHT22;11222;50.872;4.312;2022-08-21T16:21:17;25.10;99.90
22112;DHT22;11222;50.872;4.312;2022-08-21T16:23:43;25.00;99.90
22112;DHT22;11222;50.872;4.312;2022-08-21T16:26:11;24.80;99.90
22112;DHT22;11222;50.872;4.312;2022-08-21T16:28:39;24.80;99.90
22112;DHT22;11222;50.872;4.312;2022-08-21T16:31:06;24.90;99.90
22112;DHT22;11222;50.872;4.312;2022-08-21T16:33:36;24.90;99.90
22112;DHT22;11222;50.872;4.312;2022-08-21T16:36:03;25.00;99.90
22112;DHT22;11222;50.872;4.312;2022-08-21T16:38:29;25.00;99.90
22112;DHT22;11222;50.872;4.312;2022-08-21T16:40:58;25.10;99.90
22112;DHT22;11222;50.872;4.312;2022-08-21T16:43:26;25.10;99.90
22112;DHT22;11222;50.872;4.312;2022-08-21T16:45:54;25.00;99.90
22112;DHT22;11222;50.872;4.312;2022-08-21T16:48:20;25.00;99.90
22112;DHT22;11222;50.872;4.312;2022-08-21T16:50:46;24.90;99.90
22112;DHT22;11222;50.872;4.312;2022-08-21T16:53:12;24.90;99.90